Loodiep — A8ZO7 — position and weather

sailwx.info

Track history (hours):
 
Tides and Currents Weather Stations Pressure Air Temp Water Temp Dewpoint Dewpoint Depression Visibility Wind Speed Wind Dir Waves Ship Positions

Loodiep

Last reported at 2016-Apr-27 03:30 UTC. Time now 2016-Apr-30 08:58 UTC.
Position N 37°50' E 015°58'.

Length 108 m; draft 6.8 m.

Type: Cargo ship. MMSI: 636015263.

Date/timePositionNaut miles runAvg speedWind from/ knotsBaromVisibWave heightAir tempDewpointWater temp
2016-Apr-27 03:30N 37°50' E 015°58'10 9.9
2016-Apr-27 02:33N 37°50' E 015°46'1010.1
2016-Apr-27 01:34N 37°58' E 015°37'1010.1
2016-Apr-27 00:34N 38°08' E 015°35'1010.2
2016-Apr-26 23:34N 38°17' E 015°40'10 9.9
2016-Apr-26 22:34N 38°20' E 015°28'1010.1
2016-Apr-26 21:33N 38°20' E 015°15'1110.6
2016-Apr-26 20:33N 38°20' E 015°02'4410.1
2016-Apr-26 16:09N 38°17' E 014°06'6 9.7
2016-Apr-26 15:33N 38°17' E 013°58'10 9.7
2016-Apr-26 14:33N 38°17' E 013°46'10 9.7
2016-Apr-26 13:34N 38°18' E 013°33'10 9.7
2016-Apr-26 12:34N 38°18' E 013°21'10 9.8
2016-Apr-26 11:34N 38°17' E 013°09'10 9.7
2016-Apr-26 10:34N 38°17' E 012°56'11 9.5
2016-Apr-26 09:24N 38°17' E 012°42'8 9.5
2016-Apr-26 08:32N 38°16' E 012°32'1010.2
2016-Apr-26 07:33N 38°14' E 012°19'  
2016-Apr-23 19:04N 36°42' E 000°22'5 9.6
2016-Apr-23 18:31N 36°41' E 000°15'27110.1
2016-Apr-22 15:34N 35°58' W 005°17'260 7.9
2016-Apr-21 06:33N 38°13' W 009°57'11 9.4
2016-Apr-21 05:19N 38°24' W 010°00'7 9.2
2016-Apr-21 04:31N 38°31' W 010°02'18 9.1
2016-Apr-21 02:33N 38°48' W 010°06'  
2016-Apr-17 13:23N 49°45' W 003°33'8 9.9
2016-Apr-17 12:33N 49°49' W 003°21'1110.7
2016-Apr-17 11:33N 49°54' W 003°07'1111.3
2016-Apr-17 10:33N 49°60' W 002°52'  
Track history (hours):
 
Tides and Currents Weather Stations Pressure Air Temp Water Temp Dewpoint Dewpoint Depression Visibility Wind Speed Wind Dir Waves Ship Positions

Loodiep

Last reported at 2016-Apr-27 03:30 UTC. Time now 2016-Apr-30 08:58 UTC.
Position N 37°50' E 015°58'.

Length 108 m; draft 6.8 m.

Type: Cargo ship. MMSI: 636015263.

Date/timePositionNaut miles runAvg speedWind from/ knotsBaromVisibWave heightAir tempDewpointWater temp
2016-Apr-27 03:30N 37°50' E 015°58'10 9.9
2016-Apr-27 02:33N 37°50' E 015°46'1010.1
2016-Apr-27 01:34N 37°58' E 015°37'1010.1
2016-Apr-27 00:34N 38°08' E 015°35'1010.2
2016-Apr-26 23:34N 38°17' E 015°40'10 9.9
2016-Apr-26 22:34N 38°20' E 015°28'1010.1
2016-Apr-26 21:33N 38°20' E 015°15'1110.6
2016-Apr-26 20:33N 38°20' E 015°02'4410.1
2016-Apr-26 16:09N 38°17' E 014°06'6 9.7
2016-Apr-26 15:33N 38°17' E 013°58'10 9.7
2016-Apr-26 14:33N 38°17' E 013°46'10 9.7
2016-Apr-26 13:34N 38°18' E 013°33'10 9.7
2016-Apr-26 12:34N 38°18' E 013°21'10 9.8
2016-Apr-26 11:34N 38°17' E 013°09'10 9.7
2016-Apr-26 10:34N 38°17' E 012°56'11 9.5
2016-Apr-26 09:24N 38°17' E 012°42'8 9.5
2016-Apr-26 08:32N 38°16' E 012°32'1010.2
2016-Apr-26 07:33N 38°14' E 012°19'  
2016-Apr-23 19:04N 36°42' E 000°22'5 9.6
2016-Apr-23 18:31N 36°41' E 000°15'27110.1
2016-Apr-22 15:34N 35°58' W 005°17'260 7.9
2016-Apr-21 06:33N 38°13' W 009°57'11 9.4
2016-Apr-21 05:19N 38°24' W 010°00'7 9.2
2016-Apr-21 04:31N 38°31' W 010°02'18 9.1
2016-Apr-21 02:33N 38°48' W 010°06'  
2016-Apr-17 13:23N 49°45' W 003°33'8 9.9
2016-Apr-17 12:33N 49°49' W 003°21'1110.7
2016-Apr-17 11:33N 49°54' W 003°07'1111.3
2016-Apr-17 10:33N 49°60' W 002°52'  

Dump ship's entire track history